createdAt,value
2019-05-11T00:01:06.940Z,13.50
2019-05-11T00:03:34.164Z,13.40
2019-05-11T00:06:01.425Z,13.50
2019-05-11T00:08:28.674Z,13.50
2019-05-11T00:10:55.925Z,13.40
2019-05-11T00:13:23.465Z,13.50
2019-05-11T00:15:50.701Z,13.30
2019-05-11T00:18:17.947Z,13.30
2019-05-11T00:20:45.219Z,13.30
2019-05-11T00:23:12.435Z,13.10
2019-05-11T00:25:39.683Z,13.00
2019-05-11T00:28:06.959Z,13.00
2019-05-11T00:30:34.236Z,13.00
2019-05-11T00:33:01.488Z,13.00
2019-05-11T00:35:28.722Z,12.90
2019-05-11T00:37:55.951Z,12.90
2019-05-11T00:40:23.187Z,13.00
2019-05-11T00:42:50.422Z,12.90
2019-05-11T00:45:17.683Z,12.90
2019-05-11T00:47:44.927Z,12.90
2019-05-11T00:50:12.267Z,12.70
2019-05-11T00:52:39.507Z,12.80
2019-05-11T00:55:06.830Z,12.70
2019-05-11T00:57:34.044Z,12.70
2019-05-11T01:00:01.287Z,12.70
2019-05-11T01:02:28.515Z,12.70
2019-05-11T01:04:55.802Z,12.60
2019-05-11T01:07:23.101Z,12.60
2019-05-11T01:09:50.369Z,12.50
2019-05-11T01:12:17.591Z,12.60
2019-05-11T01:14:44.807Z,12.50
2019-05-11T01:17:12.071Z,12.50
2019-05-11T01:19:39.311Z,12.60
2019-05-11T01:22:06.536Z,12.50
2019-05-11T01:24:33.773Z,12.50
2019-05-11T01:27:00.997Z,12.60
2019-05-11T01:29:28.252Z,12.50
2019-05-11T01:31:55.484Z,12.60
2019-05-11T01:34:22.695Z,12.40
2019-05-11T01:36:49.932Z,12.50
2019-05-11T01:39:17.217Z,12.50
2019-05-11T01:41:44.516Z,12.60
2019-05-11T01:44:11.759Z,12.60
2019-05-11T01:46:39.013Z,12.50
2019-05-11T01:49:06.378Z,12.40
2019-05-11T01:51:33.676Z,12.50
2019-05-11T01:54:00.897Z,12.50
2019-05-11T01:56:28.132Z,12.30
2019-05-11T01:58:55.345Z,12.50
2019-05-11T02:01:22.599Z,12.40
2019-05-11T02:03:49.831Z,12.40
2019-05-11T02:06:17.060Z,12.30
2019-05-11T02:08:44.307Z,12.30
2019-05-11T02:11:16.063Z,12.10
2019-05-11T02:13:40.707Z,12.00
2019-05-11T02:16:07.987Z,11.90
2019-05-11T02:18:35.327Z,11.90
2019-05-11T02:21:02.553Z,11.90
2019-05-11T02:23:29.868Z,11.80
2019-05-11T02:25:57.111Z,11.70
2019-05-11T02:28:24.339Z,11.80
2019-05-11T02:30:51.572Z,11.60
2019-05-11T02:33:18.827Z,11.70
2019-05-11T02:35:46.092Z,11.70
2019-05-11T02:38:13.325Z,11.80
2019-05-11T02:40:40.684Z,11.70
2019-05-11T02:43:07.933Z,11.70
2019-05-11T02:45:38.485Z,11.80
2019-05-11T02:48:05.861Z,11.70
2019-05-11T02:50:34.419Z,11.50
2019-05-11T02:53:03.063Z,11.60
2019-05-11T02:55:30.317Z,11.60
2019-05-11T02:57:57.664Z,11.50
2019-05-11T03:00:35.153Z,11.50
2019-05-11T03:03:02.422Z,11.60
2019-05-11T03:05:29.656Z,11.60
2019-05-11T03:07:56.920Z,11.60
2019-05-11T03:10:24.176Z,11.60
2019-05-11T03:12:51.491Z,11.60
2019-05-11T03:15:18.767Z,11.60
2019-05-11T03:17:46.492Z,11.60
2019-05-11T03:20:14.141Z,11.70
2019-05-11T03:22:41.808Z,11.50
2019-05-11T03:25:09.472Z,11.50
2019-05-11T03:27:37.358Z,11.50
2019-05-11T03:30:05.313Z,11.50
2019-05-11T03:32:32.569Z,11.50
2019-05-11T03:34:59.810Z,11.50
2019-05-11T03:37:27.128Z,11.50
2019-05-11T03:39:54.438Z,11.50
2019-05-11T03:42:21.680Z,11.50
2019-05-11T03:44:48.896Z,11.40
2019-05-11T03:47:16.172Z,11.30
2019-05-11T03:49:43.484Z,11.30
2019-05-11T03:52:10.690Z,11.30
2019-05-11T03:54:37.923Z,11.40
2019-05-11T03:57:05.162Z,11.40
2019-05-11T03:59:32.402Z,11.30
2019-05-11T04:01:59.735Z,11.40
2019-05-11T04:04:26.956Z,11.40
2019-05-11T04:06:54.184Z,11.30
2019-05-11T04:09:21.424Z,11.20
2019-05-11T04:11:48.702Z,11.40
2019-05-11T04:14:15.917Z,11.40
2019-05-11T04:16:43.257Z,11.50
2019-05-11T04:19:10.502Z,11.40
2019-05-11T04:21:37.787Z,11.40
2019-05-11T04:24:05.116Z,11.40
2019-05-11T04:26:32.448Z,11.40
2019-05-11T04:28:59.703Z,11.40
2019-05-11T04:31:27.019Z,11.30
2019-05-11T04:33:54.361Z,11.40
2019-05-11T04:36:21.612Z,11.30
2019-05-11T04:38:48.832Z,11.30
2019-05-11T04:41:16.071Z,11.30
2019-05-11T04:43:43.409Z,11.40
2019-05-11T04:46:10.759Z,11.40
2019-05-11T04:48:38.004Z,11.40
2019-05-11T04:51:05.223Z,11.40
2019-05-11T04:53:32.491Z,11.40
2019-05-11T04:55:59.699Z,11.40
2019-05-11T04:58:26.925Z,11.50
2019-05-11T05:00:54.173Z,11.40
2019-05-11T05:03:21.498Z,11.50
2019-05-11T05:05:48.759Z,11.50
2019-05-11T05:08:16.059Z,11.40
2019-05-11T05:10:43.316Z,11.50
2019-05-11T05:13:11.081Z,11.50
2019-05-11T05:15:38.621Z,11.30
2019-05-11T05:18:05.839Z,11.40
2019-05-11T05:20:33.076Z,11.20
2019-05-11T05:23:00.297Z,11.30
2019-05-11T05:25:27.516Z,11.30
2019-05-11T05:27:54.768Z,11.30
2019-05-11T05:30:21.981Z,11.20
2019-05-11T05:32:49.215Z,11.20
2019-05-11T05:35:16.468Z,11.20
2019-05-11T05:37:43.695Z,11.20
2019-05-11T05:40:11.031Z,11.20
2019-05-11T05:42:38.268Z,11.20
2019-05-11T05:45:06.327Z,11.30
2019-05-11T05:47:33.676Z,11.30
2019-05-11T05:50:01.111Z,11.50
2019-05-11T05:52:28.451Z,11.40
2019-05-11T05:54:55.675Z,11.50
2019-05-11T05:57:22.915Z,11.50
2019-05-11T05:59:50.192Z,11.60
2019-05-11T06:02:17.428Z,11.50
2019-05-11T06:04:44.654Z,11.40
2019-05-11T06:07:11.967Z,11.50
2019-05-11T06:09:39.207Z,11.40
2019-05-11T06:12:06.475Z,11.60
2019-05-11T06:14:33.836Z,11.50
2019-05-11T06:17:01.131Z,11.50
2019-05-11T06:19:28.385Z,11.40
2019-05-11T06:21:55.681Z,11.60
2019-05-11T06:24:22.899Z,11.50
2019-05-11T06:26:50.141Z,11.50
2019-05-11T06:29:21.289Z,11.50
2019-05-11T06:31:46.595Z,11.50
2019-05-11T06:34:33.319Z,11.50
2019-05-11T06:37:00.580Z,11.50
2019-05-11T06:39:27.809Z,11.60
2019-05-11T06:41:55.063Z,11.60
2019-05-11T06:44:22.295Z,11.60
2019-05-11T06:46:49.621Z,11.60
2019-05-11T06:49:16.906Z,11.80
2019-05-11T06:51:44.200Z,11.80
2019-05-11T06:54:11.421Z,11.80
2019-05-11T06:56:38.704Z,12.00
2019-05-11T06:59:05.979Z,11.80
2019-05-11T07:01:33.345Z,11.90
2019-05-11T07:04:00.571Z,11.90
2019-05-11T07:06:30.547Z,12.00
2019-05-11T07:08:56.963Z,12.00
2019-05-11T07:11:24.240Z,12.10
2019-05-11T07:13:51.481Z,12.20
2019-05-11T07:16:18.804Z,12.10
2019-05-11T07:18:47.335Z,12.20
2019-05-11T07:21:14.571Z,12.20
2019-05-11T07:23:41.796Z,12.20
2019-05-11T07:26:09.020Z,12.10
2019-05-11T07:28:37.147Z,12.20
2019-05-11T07:31:04.625Z,12.00
2019-05-11T07:33:31.940Z,11.90
2019-05-11T07:35:59.175Z,12.10
2019-05-11T07:38:27.823Z,12.00
2019-05-11T07:40:55.427Z,12.10
2019-05-11T07:43:22.813Z,12.10
2019-05-11T07:45:50.140Z,12.10
2019-05-11T07:48:18.622Z,12.10
2019-05-11T07:50:47.991Z,12.20
2019-05-11T07:53:18.607Z,12.30
2019-05-11T07:55:48.326Z,12.20
2019-05-11T07:58:15.327Z,12.30
2019-05-11T08:00:43.154Z,12.20
2019-05-11T08:03:10.449Z,12.20
2019-05-11T08:05:38.666Z,12.10
2019-05-11T08:08:08.562Z,12.00
2019-05-11T08:10:35.525Z,12.00
2019-05-11T08:13:02.759Z,11.90
2019-05-11T08:15:30.044Z,12.10
2019-05-11T08:17:57.821Z,12.30
2019-05-11T08:20:28.050Z,12.50
2019-05-11T08:22:55.575Z,12.40
2019-05-11T08:25:22.917Z,12.40
2019-05-11T08:27:50.323Z,12.40
2019-05-11T08:30:18.939Z,12.40
2019-05-11T08:32:49.751Z,12.40
2019-05-11T08:35:17.930Z,12.50
2019-05-11T08:37:47.736Z,12.50
2019-05-11T08:40:18.336Z,12.40
2019-05-11T08:42:47.956Z,12.40
2019-05-11T08:45:22.963Z,12.60
2019-05-11T08:47:43.988Z,12.40
2019-05-11T08:50:15.104Z,12.40
2019-05-11T08:52:40.732Z,12.30
2019-05-11T08:55:08.586Z,12.40
2019-05-11T08:57:38.527Z,12.30
2019-05-11T09:00:05.287Z,12.40
2019-05-11T09:02:33.304Z,12.40
2019-05-11T09:05:00.759Z,12.40
2019-05-11T09:07:28.740Z,12.50
2019-05-11T09:09:58.381Z,12.80
2019-05-11T09:12:25.597Z,12.90
2019-05-11T09:14:52.920Z,13.00
2019-05-11T09:17:20.136Z,12.90
2019-05-11T09:19:48.243Z,12.90
2019-05-11T09:22:15.587Z,13.30
2019-05-11T09:24:42.811Z,13.50
2019-05-11T09:27:10.083Z,13.60
2019-05-11T09:29:38.655Z,13.80
2019-05-11T09:32:08.646Z,13.90
2019-05-11T09:34:37.638Z,14.20
2019-05-11T09:37:04.481Z,14.20
2019-05-11T09:39:31.733Z,14.10
2019-05-11T09:41:58.978Z,14.00
2019-05-11T09:44:28.615Z,14.00
2019-05-11T09:46:58.927Z,13.80
2019-05-11T09:49:24.483Z,13.80
2019-05-11T09:51:51.723Z,13.80
2019-05-11T09:54:18.975Z,13.80
2019-05-11T09:56:48.469Z,13.80
2019-05-11T09:59:17.675Z,13.70
2019-05-11T10:01:44.593Z,13.80
2019-05-11T10:04:11.815Z,14.00
2019-05-11T10:06:39.652Z,14.10
2019-05-11T10:09:08.198Z,14.00
2019-05-11T10:11:35.833Z,14.00
2019-05-11T10:14:03.202Z,13.70
2019-05-11T10:16:30.448Z,13.50
2019-05-11T10:18:59.104Z,13.60
2019-05-11T10:21:27.920Z,13.50
2019-05-11T10:23:57.828Z,13.50
2019-05-11T10:26:24.572Z,13.60
2019-05-11T10:28:51.815Z,13.50
2019-05-11T10:31:19.065Z,13.40
2019-05-11T10:33:48.675Z,13.40
2019-05-11T10:36:15.451Z,13.30
2019-05-11T10:38:42.679Z,13.20
2019-05-11T10:41:09.930Z,13.30
2019-05-11T10:43:38.073Z,13.40
2019-05-11T10:46:17.101Z,13.40
2019-05-11T10:48:34.757Z,13.30
2019-05-11T10:51:01.995Z,13.50
2019-05-11T10:53:29.247Z,13.80
2019-05-11T10:55:58.189Z,14.00
2019-05-11T10:58:25.703Z,13.90
2019-05-11T11:00:52.963Z,14.10
2019-05-11T11:03:20.301Z,14.50
2019-05-11T11:05:48.755Z,15.30
2019-05-11T11:08:18.390Z,15.60
2019-05-11T11:10:45.471Z,15.80
2019-05-11T11:13:12.709Z,16.10
2019-05-11T11:15:40.116Z,16.60
2019-05-11T11:18:08.502Z,17.50
2019-05-11T11:20:38.247Z,17.50
2019-05-11T11:23:05.258Z,16.60
2019-05-11T11:25:32.512Z,16.20
2019-05-11T11:27:59.751Z,15.80
2019-05-11T11:30:28.633Z,15.10
2019-05-11T11:32:58.574Z,14.60
2019-05-11T11:35:25.251Z,14.10
2019-05-11T11:37:52.487Z,14.10
2019-05-11T11:40:19.716Z,13.80
2019-05-11T11:42:47.780Z,13.80
2019-05-11T11:45:15.594Z,13.60
2019-05-11T11:47:42.828Z,13.40
2019-05-11T11:50:11.028Z,13.00
2019-05-11T11:52:38.472Z,13.00
2019-05-11T11:55:08.267Z,12.90
2019-05-11T11:57:37.761Z,13.00
2019-05-11T12:00:05.048Z,12.80
2019-05-11T12:02:32.275Z,12.80
2019-05-11T12:04:59.512Z,13.00
2019-05-11T12:07:28.575Z,13.00
2019-05-11T12:09:58.580Z,13.00
2019-05-11T12:12:25.139Z,12.90
2019-05-11T12:14:52.375Z,13.00
2019-05-11T12:17:19.607Z,13.00
2019-05-11T12:19:47.825Z,13.00
2019-05-11T12:22:15.372Z,12.90
2019-05-11T12:24:42.596Z,12.80
2019-05-11T12:27:09.878Z,12.70
2019-05-11T12:29:38.571Z,12.80
2019-05-11T12:32:08.977Z,13.00
2019-05-11T12:34:37.521Z,13.10
2019-05-11T12:37:04.879Z,13.00
2019-05-11T12:39:32.133Z,13.20
2019-05-11T12:41:59.424Z,13.50
2019-05-11T12:44:28.381Z,13.70
2019-05-11T12:46:58.146Z,13.70
2019-05-11T12:49:24.980Z,13.80
2019-05-11T12:51:52.196Z,14.20
2019-05-11T12:54:19.443Z,14.00
2019-05-11T12:56:48.750Z,13.80
2019-05-11T12:59:15.801Z,13.90
2019-05-11T13:01:43.058Z,13.80
2019-05-11T13:04:10.310Z,13.70
2019-05-11T13:06:38.470Z,13.50
2019-05-11T13:09:07.672Z,13.40
2019-05-11T13:11:35.096Z,13.40
2019-05-11T13:14:02.341Z,13.70
2019-05-11T13:16:29.572Z,13.80
2019-05-11T13:18:57.691Z,14.00
2019-05-11T13:21:25.072Z,13.90
2019-05-11T13:23:52.283Z,14.00
2019-05-11T13:26:19.639Z,14.00
2019-05-11T13:28:48.425Z,14.00
2019-05-11T13:31:15.907Z,13.80
2019-05-11T13:33:43.163Z,13.70
2019-05-11T13:36:10.403Z,13.70
2019-05-11T13:38:38.853Z,13.50
2019-05-11T13:41:07.985Z,13.60
2019-05-11T13:43:35.563Z,13.80
2019-05-11T13:46:02.932Z,13.70
2019-05-11T13:48:30.184Z,13.60
2019-05-11T13:50:58.246Z,13.70
2019-05-11T13:53:27.654Z,13.50
2019-05-11T13:55:55.079Z,13.70
2019-05-11T13:58:22.323Z,13.90
2019-05-11T14:00:49.603Z,14.20
2019-05-11T14:03:18.433Z,14.30
2019-05-11T14:05:48.130Z,14.40
2019-05-11T14:08:15.008Z,14.20
2019-05-11T14:10:48.837Z,14.30
2019-05-11T14:13:18.140Z,14.40
2019-05-11T14:15:45.563Z,14.30
2019-05-11T14:18:12.802Z,14.40
2019-05-11T14:20:40.071Z,14.60
2019-05-11T14:23:07.855Z,14.60
2019-05-11T14:25:35.306Z,14.30
2019-05-11T14:28:02.586Z,14.10
2019-05-11T14:30:29.931Z,13.80
2019-05-11T14:32:58.106Z,13.70
2019-05-11T14:35:27.815Z,13.60
2019-05-11T14:37:54.719Z,13.60
2019-05-11T14:40:21.965Z,13.40
2019-05-11T14:42:50.297Z,13.10
2019-05-11T14:45:18.717Z,13.10
2019-05-11T14:47:47.763Z,13.20
2019-05-11T14:50:15.179Z,13.20
2019-05-11T14:52:43.496Z,13.20
2019-05-11T14:55:10.737Z,13.10
2019-05-11T14:57:39.704Z,13.30
2019-05-11T15:00:08.862Z,13.10
2019-05-11T15:02:45.000Z,13.20
2019-05-11T15:05:12.768Z,13.20
2019-05-11T15:07:40.001Z,13.00
2019-05-11T15:10:08.573Z,13.10
2019-05-11T15:12:37.949Z,12.90
2019-05-11T15:15:05.365Z,12.90
2019-05-11T15:17:32.707Z,12.90
2019-05-11T15:19:59.959Z,12.90
2019-05-11T15:22:28.733Z,13.00
2019-05-11T15:24:58.554Z,12.90
2019-05-11T15:27:25.419Z,12.90
2019-05-11T15:29:52.638Z,12.90
2019-05-11T15:32:19.895Z,12.80
2019-05-11T15:34:48.804Z,12.70
2019-05-11T15:37:17.776Z,12.70
2019-05-11T15:39:45.270Z,12.60
2019-05-11T15:42:16.986Z,12.60
2019-05-11T15:44:41.853Z,12.60
2019-05-11T15:47:09.210Z,12.50
2019-05-11T15:49:37.638Z,12.60
2019-05-11T15:52:08.061Z,12.50
2019-05-11T15:54:35.069Z,12.40
2019-05-11T15:57:02.297Z,12.40
2019-05-11T15:59:30.536Z,12.40
2019-05-11T16:01:58.258Z,12.30
2019-05-11T16:04:27.959Z,12.20
2019-05-11T16:06:54.779Z,12.30
2019-05-11T16:09:22.055Z,12.00
2019-05-11T16:11:49.287Z,12.00
2019-05-11T16:14:16.508Z,12.00
2019-05-11T16:16:43.843Z,11.90
2019-05-11T16:19:14.949Z,11.90
2019-05-11T16:21:40.311Z,11.80
2019-05-11T16:24:08.197Z,11.80
2019-05-11T16:26:35.677Z,11.60
2019-05-11T16:29:02.921Z,11.60
2019-05-11T16:31:30.155Z,11.70
2019-05-11T16:33:58.942Z,11.60
2019-05-11T16:36:28.449Z,11.70
2019-05-11T16:38:55.679Z,11.80
2019-05-11T16:41:23.007Z,11.80
2019-05-11T16:43:50.255Z,11.70
2019-05-11T16:46:17.813Z,11.80
2019-05-11T16:48:45.268Z,11.80
2019-05-11T16:51:12.593Z,11.80
2019-05-11T16:53:39.832Z,11.80
2019-05-11T16:56:08.442Z,11.80
2019-05-11T16:58:38.152Z,11.90
2019-05-11T17:01:05.251Z,11.80
2019-05-11T17:03:32.479Z,11.80
2019-05-11T17:05:59.719Z,11.80
2019-05-11T17:08:27.638Z,11.90
2019-05-11T17:10:59.128Z,11.80
2019-05-11T17:13:26.830Z,11.80
2019-05-11T17:15:54.191Z,11.80
2019-05-11T17:18:21.523Z,11.80
2019-05-11T17:20:48.740Z,11.80
2019-05-11T17:23:18.182Z,11.90
2019-05-11T17:25:45.158Z,11.90
2019-05-11T17:28:12.476Z,11.90
2019-05-11T17:30:39.738Z,11.80
2019-05-11T17:33:08.767Z,11.80
2019-05-11T17:35:36.095Z,11.70
2019-05-11T17:38:03.310Z,11.70
2019-05-11T17:40:30.616Z,11.70
2019-05-11T17:42:58.513Z,11.70
2019-05-11T17:45:26.013Z,11.70
2019-05-11T17:47:53.256Z,11.70
2019-05-11T17:50:20.496Z,11.50
2019-05-11T17:52:48.095Z,11.50
2019-05-11T17:55:15.478Z,11.40
2019-05-11T17:57:42.732Z,11.50
2019-05-11T18:00:10.172Z,11.50
2019-05-11T18:02:38.919Z,11.40
2019-05-11T18:05:08.951Z,11.50
2019-05-11T18:07:38.296Z,11.50
2019-05-11T18:10:05.150Z,11.50
2019-05-11T18:12:32.405Z,11.40
2019-05-11T18:14:59.650Z,11.50
2019-05-11T18:17:26.971Z,11.60
2019-05-11T18:19:54.224Z,11.60
2019-05-11T18:22:21.509Z,11.50
2019-05-11T18:24:49.134Z,11.50
2019-05-11T18:27:18.429Z,11.40
2019-05-11T18:29:45.644Z,11.40
2019-05-11T18:32:13.104Z,11.30
2019-05-11T18:34:40.378Z,11.30
2019-05-11T18:37:09.455Z,11.20
2019-05-11T18:39:37.882Z,11.00
2019-05-11T18:42:08.099Z,11.10
2019-05-11T18:44:34.806Z,11.00
2019-05-11T18:47:02.200Z,11.00
2019-05-11T18:49:29.631Z,11.00
2019-05-11T18:51:58.653Z,10.90
2019-05-11T18:54:27.717Z,10.90
2019-05-11T18:56:55.343Z,11.00
2019-05-11T18:59:22.851Z,10.90
2019-05-11T19:01:50.219Z,11.00
2019-05-11T19:04:18.468Z,11.00
2019-05-11T19:06:48.311Z,10.90
2019-05-11T19:09:17.840Z,11.10
2019-05-11T19:11:44.653Z,11.00
2019-05-11T19:14:12.127Z,11.10
2019-05-11T19:16:39.413Z,11.10
2019-05-11T19:19:08.172Z,11.00
2019-05-11T19:21:35.663Z,11.00
2019-05-11T19:24:05.971Z,10.90
2019-05-11T19:26:32.196Z,10.90
2019-05-11T19:29:00.771Z,11.00
2019-05-11T19:31:28.384Z,11.00
2019-05-11T19:33:58.172Z,11.00
2019-05-11T19:36:27.378Z,10.90
2019-05-11T19:38:54.527Z,11.00
2019-05-11T19:41:21.800Z,10.90
2019-05-11T19:43:49.152Z,10.90
2019-05-11T19:46:18.390Z,10.90
2019-05-11T19:48:47.511Z,10.90
2019-05-11T19:51:15.030Z,10.90
2019-05-11T19:53:42.399Z,10.90
2019-05-11T19:56:09.827Z,10.70
2019-05-11T19:58:38.097Z,10.80
2019-05-11T20:01:08.471Z,10.70
2019-05-11T20:03:34.856Z,10.70
2019-05-11T20:06:02.292Z,10.80
2019-05-11T20:08:29.779Z,10.80
2019-05-11T20:10:57.106Z,10.80
2019-05-11T20:13:24.412Z,10.60
2019-05-11T20:15:51.895Z,10.60
2019-05-11T20:18:19.595Z,10.60
2019-05-11T20:20:48.094Z,10.60
2019-05-11T20:23:15.657Z,10.60
2019-05-11T20:25:42.927Z,10.60
2019-05-11T20:28:10.268Z,10.60
2019-05-11T20:30:37.529Z,10.70
2019-05-11T20:33:05.195Z,10.60
2019-05-11T20:35:32.732Z,10.60
2019-05-11T20:38:00.092Z,10.60
2019-05-11T20:40:31.139Z,10.50
2019-05-11T20:42:58.839Z,10.40
2019-05-11T20:45:28.463Z,10.40
2019-05-11T20:47:55.676Z,10.40
2019-05-11T20:50:24.190Z,10.40
2019-05-11T20:52:51.599Z,10.40
2019-05-11T20:55:19.030Z,10.20
2019-05-11T20:57:48.282Z,10.30
2019-05-11T21:00:18.541Z,10.30
2019-05-11T21:02:45.595Z,10.30
2019-05-11T21:05:12.867Z,10.30
2019-05-11T21:07:40.567Z,10.30
2019-05-11T21:10:08.782Z,10.30
2019-05-11T21:12:38.494Z,10.20
2019-05-11T21:15:07.068Z,10.10
2019-05-11T21:17:34.583Z,10.20
2019-05-11T21:20:01.965Z,10.10
2019-05-11T21:22:29.403Z,10.10
2019-05-11T21:24:58.176Z,10.10
2019-05-11T21:27:25.690Z,10.10
2019-05-11T21:29:52.982Z,10.00
2019-05-11T21:32:20.382Z,10.00
2019-05-11T21:34:48.873Z,9.90
2019-05-11T21:37:18.265Z,9.90
2019-05-11T21:39:45.739Z,9.90
2019-05-11T21:42:13.101Z,9.90
2019-05-11T21:44:40.908Z,10.10
2019-05-11T21:47:08.321Z,10.00
2019-05-11T21:49:37.741Z,9.70
2019-05-11T21:52:04.891Z,9.80
2019-05-11T21:54:32.241Z,9.80
2019-05-11T21:56:59.524Z,9.70
2019-05-11T21:59:27.682Z,9.80
2019-05-11T22:01:55.277Z,9.80
2019-05-11T22:04:22.696Z,9.70
2019-05-11T22:06:50.148Z,9.80
2019-05-11T22:09:18.613Z,9.70
2019-05-11T22:11:48.522Z,9.70
2019-05-11T22:14:15.491Z,9.70
2019-05-11T22:16:42.811Z,9.60
2019-05-11T22:19:10.227Z,9.60
2019-05-11T22:21:37.791Z,9.60
2019-05-11T22:24:05.109Z,9.60
2019-05-11T22:26:32.324Z,9.60
2019-05-11T22:28:59.575Z,9.70
2019-05-11T22:31:28.022Z,9.50
2019-05-11T22:33:55.697Z,9.50
2019-05-11T22:36:23.278Z,9.60
2019-05-11T22:38:50.640Z,9.50
2019-05-11T22:41:18.205Z,9.50
2019-05-11T22:43:45.485Z,9.50
2019-05-11T22:46:12.826Z,9.70
2019-05-11T22:48:40.107Z,9.70
2019-05-11T22:51:07.974Z,9.60
2019-05-11T22:53:44.722Z,9.50
2019-05-11T22:56:04.539Z,9.60
2019-05-11T22:58:31.788Z,9.60
2019-05-11T23:00:59.797Z,9.60
2019-05-11T23:03:27.831Z,9.50
2019-05-11T23:05:55.389Z,9.50
2019-05-11T23:08:22.613Z,9.40
2019-05-11T23:10:49.827Z,9.40
2019-05-11T23:13:18.716Z,9.30
2019-05-11T23:15:47.761Z,9.20
2019-05-11T23:18:17.817Z,9.30
2019-05-11T23:20:44.527Z,9.10
2019-05-11T23:23:11.791Z,9.20
2019-05-11T23:25:39.024Z,9.20
2019-05-11T23:28:06.259Z,9.20
2019-05-11T23:30:33.492Z,9.30
2019-05-11T23:33:00.920Z,9.30
2019-05-11T23:35:28.692Z,9.10
2019-05-11T23:37:57.984Z,9.20
2019-05-11T23:40:25.036Z,9.10
2019-05-11T23:42:52.251Z,9.20
2019-05-11T23:45:19.538Z,9.10
2019-05-11T23:47:48.636Z,9.00
2019-05-11T23:50:18.558Z,9.10
2019-05-11T23:52:45.567Z,9.00
2019-05-11T23:55:13.018Z,9.00
2019-05-11T23:57:40.241Z,9.10
